createdAt,value
2023-03-23T15:59:13.376Z,99544.38
2023-03-23T16:02:42.786Z,99546.88
2023-03-23T16:06:11.595Z,99546.63
2023-03-23T16:09:40.324Z,99507.63
2023-03-23T16:13:09.000Z,99536.84
2023-03-23T16:16:37.653Z,99557.44
2023-03-23T16:20:06.493Z,99549.91
2023-03-23T16:23:35.303Z,99550.97
2023-03-23T16:27:03.963Z,99556.84
2023-03-23T16:30:32.703Z,99554.59
2023-03-23T16:34:02.449Z,99555.84
2023-03-23T16:37:31.094Z,99556.69
2023-03-23T16:40:00.864Z,99551.75
2023-03-23T16:43:29.590Z,99558.31
2023-03-23T16:46:58.433Z,99498.22
2023-03-23T16:50:27.182Z,99504.94
2023-03-23T16:53:55.894Z,99513.84
2023-03-23T16:57:24.650Z,99581.56
2023-03-23T17:00:53.689Z,99528.75
2023-03-23T17:04:22.288Z,99546.97
2023-03-23T17:07:50.977Z,99585.34
2023-03-23T17:11:19.598Z,99589.56
2023-03-23T17:24:44.634Z,99588.72
2023-03-23T17:27:14.934Z,99592.72
2023-03-23T17:29:44.738Z,99595.44
2023-03-23T17:33:13.438Z,99614.13
2023-03-23T17:36:42.174Z,99589.78
2023-03-23T17:40:10.792Z,99588.16
2023-03-23T17:43:39.555Z,99590.38
2023-03-23T17:47:08.372Z,99588.72
2023-03-23T17:50:37.101Z,99584.38
2023-03-23T17:54:05.781Z,99525.16
2023-03-23T17:57:34.452Z,99589.56
2023-03-23T18:01:03.178Z,99584.38
2023-03-23T18:04:32.204Z,99596.59
2023-03-23T18:07:08.835Z,99578.16
2023-03-23T18:09:38.508Z,99572.38
2023-03-23T18:12:08.496Z,99578.16
2023-03-23T18:14:40.528Z,99584.81
2023-03-23T18:17:10.259Z,99582.59
2023-03-23T18:20:38.979Z,99585.06
2023-03-23T18:24:07.673Z,99579.09
2023-03-23T18:27:37.148Z,99576.97
2023-03-23T18:31:05.977Z,99592.34
2023-03-23T18:34:34.749Z,99593.19
2023-03-23T18:38:03.432Z,99587.41
2023-03-23T18:41:32.137Z,99565.09
2023-03-23T18:45:00.820Z,99592.81
2023-03-23T18:48:29.608Z,99587.63
2023-03-23T18:51:58.269Z,99541.69
2023-03-23T18:55:26.978Z,99589.22
2023-03-23T18:58:55.654Z,99591.53
2023-03-23T19:02:24.401Z,99635.03
2023-03-23T19:05:53.116Z,99614.81
2023-03-23T19:09:21.906Z,99611.53
2023-03-23T19:12:50.599Z,99602.34
2023-03-23T19:16:19.344Z,99621.28
2023-03-23T19:19:48.062Z,99541.75
2023-03-23T19:23:16.758Z,99614.66
2023-03-23T20:23:06.700Z,99648.59
2023-03-23T20:26:35.660Z,99572.16
2023-03-23T20:30:04.482Z,99650.88
2023-03-23T20:33:33.149Z,99638.25
2023-03-23T20:37:01.886Z,99628.47
2023-03-23T20:40:30.712Z,99633.06
2023-03-23T20:43:59.424Z,99637.66
2023-03-23T20:47:28.140Z,99630.59
2023-03-23T20:50:56.989Z,99605.56
2023-03-23T20:54:25.649Z,99598.84
2023-03-23T20:57:54.357Z,99594.25
2023-03-23T21:01:23.156Z,99589.53
2023-03-23T21:04:51.911Z,99596.81
2023-03-23T21:08:20.570Z,99601.16
2023-03-23T21:11:49.526Z,99598.47
2023-03-23T21:15:18.190Z,99633.84
2023-03-23T21:18:46.937Z,99620.75
2023-03-23T21:22:16.787Z,99634.06
2023-03-23T21:24:48.074Z,99635.47
2023-03-23T21:27:18.191Z,99643.81
2023-03-23T21:29:48.402Z,99642.75
2023-03-23T21:32:18.119Z,99647.13
2023-03-23T21:34:49.056Z,99656.28
2023-03-23T21:37:18.784Z,99664.16
2023-03-23T21:39:48.824Z,99661.25
2023-03-23T21:43:17.555Z,99671.22
2023-03-23T21:46:46.289Z,99689.09
2023-03-23T21:50:15.065Z,99700.94
2023-03-23T21:53:43.733Z,99654.25
2023-03-23T21:57:12.489Z,99714.31
2023-03-23T22:00:41.254Z,99726.63
2023-03-23T22:04:10.018Z,99735.09
2023-03-23T22:06:39.708Z,99732.19
2023-03-23T22:10:08.474Z,99747.34
2023-03-23T22:13:37.126Z,99760.47
2023-03-23T22:17:06.088Z,99772.09
2023-03-23T22:20:35.730Z,99775.56
2023-03-23T22:24:04.439Z,99729.59
2023-03-23T22:27:33.097Z,99791.72
2023-03-23T22:30:02.796Z,99817.84
2023-03-23T22:32:32.774Z,99825.13
2023-03-23T22:35:02.421Z,99831.59
2023-03-23T22:38:31.086Z,99836.31
2023-03-23T22:41:02.758Z,99839.03
2023-03-23T22:43:32.362Z,99857.03
2023-03-23T22:46:02.106Z,99854.81
2023-03-23T22:48:31.973Z,99862.84
2023-03-23T22:52:00.668Z,99867.03
2023-03-23T22:55:29.336Z,99880.72
2023-03-23T22:58:58.123Z,99878.78
2023-03-23T23:02:26.875Z,99878.56
2023-03-23T23:05:55.641Z,99887.50
2023-03-23T23:09:24.347Z,99883.56
2023-03-23T23:12:53.073Z,99885.84
2023-03-23T23:16:21.829Z,99886.25
2023-03-23T23:19:50.521Z,99888.31
2023-03-23T23:23:20.152Z,99877.72
2023-03-23T23:26:48.850Z,99887.88
2023-03-23T23:30:17.524Z,99900.47
2023-03-23T23:33:46.147Z,99905.28
2023-03-23T23:37:14.865Z,99907.09
2023-03-23T23:40:43.714Z,99913.69
2023-03-23T23:44:12.518Z,99923.38
2023-03-23T23:47:41.172Z,99927.97
2023-03-23T23:51:09.960Z,99880.88
2023-03-23T23:54:38.651Z,99940.41
2023-03-23T23:58:07.378Z,99872.84
